createdAt,value
2022-09-06T00:00:56.789Z,97267.25
2022-09-06T00:03:23.732Z,97260.38
2022-09-06T00:05:51.163Z,97267.72
2022-09-06T00:08:18.015Z,97263.81
2022-09-06T00:10:44.700Z,97270.34
2022-09-06T00:13:11.866Z,97258.22
2022-09-06T00:15:38.536Z,97258.19
2022-09-06T00:18:06.877Z,97261.25
2022-09-06T00:20:34.713Z,97254.22
2022-09-06T00:23:03.495Z,97251.34
2022-09-06T00:25:30.432Z,97252.81
2022-09-06T00:27:58.652Z,97245.88
2022-09-06T00:30:26.113Z,97250.59
2022-09-06T00:32:53.912Z,97249.97
2022-09-06T00:35:21.891Z,97240.78
2022-09-06T00:37:48.461Z,97245.28
2022-09-06T00:40:15.160Z,97237.44
2022-09-06T00:42:41.883Z,97235.75
2022-09-06T00:45:09.459Z,97232.28
2022-09-06T00:47:37.606Z,97226.19
2022-09-06T00:50:05.582Z,97230.06
2022-09-06T00:52:32.846Z,97227.16
2022-09-06T00:54:59.990Z,97226.06
2022-09-06T00:57:27.370Z,97214.00
2022-09-06T00:59:55.028Z,97222.97
2022-09-06T01:02:21.773Z,97212.97
2022-09-06T01:04:49.166Z,97214.00
2022-09-06T01:07:22.342Z,97212.56
2022-09-06T01:10:04.363Z,97218.84
2022-09-06T01:12:45.431Z,97211.88
2022-09-06T01:15:14.966Z,97204.94
2022-09-06T01:17:51.583Z,97206.56
2022-09-06T01:20:34.456Z,97215.00
2022-09-06T01:23:32.067Z,97225.47
2022-09-06T01:26:20.593Z,97220.59
2022-09-06T01:28:47.826Z,97209.50
2022-09-06T01:31:20.231Z,97216.75
2022-09-06T01:34:08.184Z,97211.31
2022-09-06T01:37:09.430Z,97217.00
2022-09-06T01:39:38.357Z,97222.78
2022-09-06T01:42:12.235Z,97223.41
2022-09-06T01:44:42.552Z,97245.72
2022-09-06T01:47:29.238Z,97254.66
2022-09-06T01:50:14.035Z,97268.59
2022-09-06T01:53:18.270Z,97270.72
2022-09-06T01:56:01.948Z,97265.13
2022-09-06T01:58:56.634Z,97262.38
2022-09-06T02:01:35.618Z,97270.09
2022-09-06T02:04:23.087Z,97264.75
2022-09-06T02:06:54.752Z,97267.75
2022-09-06T02:09:24.034Z,97259.16
2022-09-06T02:11:54.418Z,97269.84
2022-09-06T02:14:24.885Z,97262.19
2022-09-06T02:16:53.965Z,97265.25
2022-09-06T02:19:26.578Z,97263.63
2022-09-06T02:21:54.236Z,97260.50
2022-09-06T02:24:30.002Z,97256.44
2022-09-06T02:26:56.793Z,97245.66
2022-09-06T02:29:24.062Z,97247.38
2022-09-06T02:31:58.504Z,97251.81
2022-09-06T02:34:25.128Z,97246.84
2022-09-06T02:36:51.783Z,97242.78
2022-09-06T02:39:18.329Z,97244.50
2022-09-06T02:41:45.533Z,97248.13
2022-09-06T02:44:12.160Z,97248.97
2022-09-06T02:46:38.694Z,97240.25
2022-09-06T02:49:05.286Z,97229.34
2022-09-06T02:51:36.471Z,97233.44
2022-09-06T02:54:02.902Z,97225.16
2022-09-06T02:56:29.462Z,97224.13
2022-09-06T02:58:56.020Z,97226.22
2022-09-06T03:01:22.655Z,97223.28
2022-09-06T03:03:49.293Z,97224.19
2022-09-06T03:06:15.854Z,97223.19
2022-09-06T03:08:42.466Z,97214.22
2022-09-06T03:11:09.102Z,97215.97
2022-09-06T03:13:35.724Z,97216.31
2022-09-06T03:16:02.489Z,97220.47
2022-09-06T03:18:30.398Z,97218.38
2022-09-06T03:20:58.331Z,97226.03
2022-09-06T03:23:27.034Z,97222.56
2022-09-06T03:25:53.941Z,97225.53
2022-09-06T03:28:21.814Z,97235.28
2022-09-06T03:30:50.294Z,97232.56
2022-09-06T03:33:17.077Z,97240.47
2022-09-06T03:35:53.798Z,97236.41
2022-09-06T03:38:21.100Z,97241.66
2022-09-06T03:40:48.890Z,97230.81
2022-09-06T03:43:17.211Z,97226.66
2022-09-06T03:45:48.390Z,97228.91
2022-09-06T03:48:15.145Z,97233.72
2022-09-06T03:50:50.183Z,97237.72
2022-09-06T03:53:17.705Z,97239.63
2022-09-06T03:55:49.667Z,97237.78
2022-09-06T03:58:17.717Z,97234.66
2022-09-06T04:00:45.273Z,97227.09
2022-09-06T04:03:12.400Z,97239.78
2022-09-06T04:05:38.951Z,97233.66
2022-09-06T04:08:06.113Z,97232.91
2022-09-06T04:10:32.990Z,97225.94
2022-09-06T04:12:59.543Z,97224.84
2022-09-06T04:15:26.062Z,97226.97
2022-09-06T04:17:52.579Z,97225.50
2022-09-06T04:20:19.142Z,97222.09
2022-09-06T04:22:45.723Z,97212.75
2022-09-06T04:25:13.759Z,97212.19
2022-09-06T04:27:40.347Z,97225.13
2022-09-06T04:30:07.770Z,97219.88
2022-09-06T04:32:34.381Z,97224.16
2022-09-06T04:35:00.952Z,97223.41
2022-09-06T04:37:27.494Z,97223.84
2022-09-06T04:39:54.346Z,97212.44
2022-09-06T04:42:21.000Z,97223.19
2022-09-06T04:44:47.559Z,97216.19
2022-09-06T04:47:15.401Z,97221.34
2022-09-06T04:49:42.495Z,97217.81
2022-09-06T04:52:09.248Z,97220.69
2022-09-06T04:54:36.006Z,97214.41
2022-09-06T04:57:02.891Z,97222.63
2022-09-06T04:59:29.685Z,97222.47
2022-09-06T05:01:56.302Z,97215.72
2022-09-06T05:04:23.042Z,97210.88
2022-09-06T05:06:49.613Z,97219.06
2022-09-06T05:09:16.244Z,97214.63
2022-09-06T05:11:42.787Z,97217.13
2022-09-06T05:14:09.351Z,97223.69
2022-09-06T05:16:36.078Z,97233.31
2022-09-06T05:19:02.700Z,97232.72
2022-09-06T05:21:29.251Z,97232.53
2022-09-06T05:23:58.657Z,97228.31
2022-09-06T05:26:25.591Z,97227.47
2022-09-06T05:28:52.142Z,97237.28
2022-09-06T05:31:29.645Z,97229.13
2022-09-06T05:33:57.461Z,97237.09
2022-09-06T05:36:26.095Z,97239.16
2022-09-06T05:38:53.992Z,97238.34
2022-09-06T05:41:21.604Z,97235.31
2022-09-06T05:43:48.220Z,97242.25
2022-09-06T05:46:16.059Z,97243.09
2022-09-06T05:48:42.999Z,97245.34
2022-09-06T05:51:12.657Z,97240.84
2022-09-06T05:53:44.409Z,97242.47
2022-09-06T05:56:12.998Z,97241.66
2022-09-06T05:58:39.652Z,97248.44
2022-09-06T06:01:28.419Z,97243.13
2022-09-06T06:04:02.291Z,97246.56
2022-09-06T06:06:34.137Z,97247.06
2022-09-06T06:09:01.238Z,97241.38
2022-09-06T06:11:28.160Z,97247.13
2022-09-06T06:13:54.739Z,97247.31
2022-09-06T06:16:22.446Z,97249.09
2022-09-06T06:18:52.303Z,97241.34
2022-09-06T06:21:21.114Z,97242.66
2022-09-06T06:23:53.882Z,97238.53
2022-09-06T06:26:20.548Z,97232.28
2022-09-06T06:28:47.385Z,97233.81
2022-09-06T06:31:14.602Z,97230.06
2022-09-06T06:33:41.723Z,97231.88
2022-09-06T06:36:14.357Z,97226.09
2022-09-06T06:38:42.439Z,97220.16
2022-09-06T06:41:10.912Z,97223.25
2022-09-06T06:43:38.097Z,97230.19
2022-09-06T06:46:12.927Z,97234.19
2022-09-06T06:48:41.337Z,97230.84
2022-09-06T06:51:08.501Z,97226.91
2022-09-06T06:53:35.497Z,97224.31
2022-09-06T06:56:02.411Z,97231.16
2022-09-06T06:58:30.912Z,97219.13
2022-09-06T07:00:57.581Z,97217.72
2022-09-06T07:03:24.296Z,97213.38
2022-09-06T07:08:38.236Z,97221.44
2022-09-06T07:11:06.023Z,97211.19
2022-09-06T07:13:34.197Z,97214.63
2022-09-06T07:16:12.466Z,97210.94
2022-09-06T07:18:42.180Z,97211.63
2022-09-06T07:24:10.330Z,97218.13
2022-09-06T07:26:39.517Z,97216.47
2022-09-06T07:29:07.524Z,97216.97
2022-09-06T07:34:22.313Z,97213.28
2022-09-06T07:36:52.394Z,97218.47
2022-09-06T07:39:18.977Z,97223.91
2022-09-06T07:41:45.542Z,97210.78
2022-09-06T07:44:12.104Z,97222.16
2022-09-06T07:46:38.697Z,97222.16
2022-09-06T07:49:05.992Z,97217.28
2022-09-06T07:51:32.664Z,97211.38
2022-09-06T07:54:34.671Z,97209.75
2022-09-06T07:56:47.605Z,97206.78
2022-09-06T07:59:14.481Z,97216.22
2022-09-06T08:01:41.666Z,97207.84
2022-09-06T08:04:10.492Z,97215.44
2022-09-06T08:09:35.393Z,97210.06
2022-09-06T08:12:06.832Z,97214.91
2022-09-06T08:14:34.480Z,97213.00
2022-09-06T08:17:01.483Z,97207.63
2022-09-06T08:19:28.449Z,97207.56
2022-09-06T08:21:55.743Z,97206.75
2022-09-06T08:24:22.400Z,97201.03
2022-09-06T08:26:48.981Z,97200.16
2022-09-06T08:29:15.527Z,97198.84
2022-09-06T08:31:43.673Z,97201.50
2022-09-06T08:34:12.710Z,97201.97
2022-09-06T08:36:39.644Z,97203.47
2022-09-06T08:39:09.082Z,97193.63
2022-09-06T08:42:00.258Z,97196.63
2022-09-06T08:47:15.291Z,97193.00
2022-09-06T08:49:56.640Z,97193.88
2022-09-06T08:53:16.248Z,97196.94
2022-09-06T08:55:50.261Z,97180.88
2022-09-06T08:58:41.769Z,97194.47
2022-09-06T09:01:14.700Z,97190.09
2022-09-06T09:03:42.926Z,97182.56
2022-09-06T09:06:10.334Z,97185.59
2022-09-06T09:08:59.178Z,97185.81
2022-09-06T09:11:26.078Z,97178.06
2022-09-06T09:14:07.922Z,97176.75
2022-09-06T09:16:34.604Z,97179.94
2022-09-06T09:19:04.235Z,97179.81
2022-09-06T09:21:37.376Z,97184.13
2022-09-06T09:24:10.344Z,97179.28
2022-09-06T09:26:56.977Z,97173.53
2022-09-06T09:29:28.008Z,97174.09
2022-09-06T09:31:56.680Z,97166.00
2022-09-06T09:34:33.857Z,97157.22
2022-09-06T09:40:16.495Z,97161.50
2022-09-06T09:42:44.154Z,97158.91
2022-09-06T09:45:28.955Z,97153.91
2022-09-06T09:47:56.029Z,97151.00
2022-09-06T09:50:34.860Z,97146.38
2022-09-06T09:53:08.117Z,97132.56
2022-09-06T09:55:35.841Z,97136.28
2022-09-06T09:58:02.667Z,97137.47
2022-09-06T10:00:40.100Z,97146.00
2022-09-06T10:03:20.355Z,97136.28
2022-09-06T10:06:02.788Z,97134.69
2022-09-06T10:08:31.432Z,97132.91
2022-09-06T10:10:58.374Z,97121.38
2022-09-06T10:13:30.170Z,97130.50
2022-09-06T10:16:03.386Z,97126.56
2022-09-06T10:18:36.001Z,97126.84
2022-09-06T10:21:13.630Z,97133.66
2022-09-06T10:26:53.187Z,97128.78
2022-09-06T10:29:43.480Z,97137.31
2022-09-06T10:32:27.280Z,97135.22
2022-09-06T10:35:05.311Z,97126.66
2022-09-06T10:37:52.697Z,97119.84
2022-09-06T10:41:04.429Z,97114.94
2022-09-06T10:43:48.484Z,97114.50
2022-09-06T10:46:18.735Z,97106.97
2022-09-06T10:48:45.854Z,97113.06
2022-09-06T10:51:32.102Z,97115.28
2022-09-06T10:54:11.490Z,97120.88
2022-09-06T10:56:56.237Z,97124.63
2022-09-06T10:59:39.261Z,97125.66
2022-09-06T11:02:05.968Z,97115.50
2022-09-06T11:07:33.757Z,97119.03
2022-09-06T11:10:03.196Z,97110.84
2022-09-06T11:12:57.822Z,97102.72
2022-09-06T11:15:26.363Z,97097.50
2022-09-06T11:21:51.628Z,97102.81
2022-09-06T11:24:55.651Z,97100.53
2022-09-06T11:27:42.660Z,97107.19
2022-09-06T11:30:15.137Z,97106.22
2022-09-06T11:32:48.544Z,97099.09
2022-09-06T11:35:32.079Z,97102.72
2022-09-06T11:38:00.519Z,97094.63
2022-09-06T11:40:29.704Z,97096.25
2022-09-06T11:42:58.733Z,97098.53
2022-09-06T11:45:43.323Z,97097.72
2022-09-06T11:48:26.383Z,97101.09
2022-09-06T11:51:02.247Z,97095.91
2022-09-06T11:53:31.330Z,97098.78
2022-09-06T11:56:00.989Z,97096.84
2022-09-06T11:58:55.996Z,97106.88
2022-09-06T12:01:22.517Z,97088.13
2022-09-06T12:04:05.901Z,97090.91
2022-09-06T12:06:43.982Z,97085.25
2022-09-06T12:09:27.278Z,97086.78
2022-09-06T12:11:55.171Z,97085.47
2022-09-06T12:14:34.434Z,97083.56
2022-09-06T12:17:01.019Z,97082.25
2022-09-06T12:19:44.521Z,97078.59
2022-09-06T12:22:26.556Z,97081.53
2022-09-06T12:25:30.517Z,97085.06
2022-09-06T12:28:00.701Z,97075.97
2022-09-06T12:30:45.049Z,97076.06
2022-09-06T12:33:17.487Z,97074.78
2022-09-06T12:36:00.531Z,97061.19
2022-09-06T12:38:28.887Z,97056.81
2022-09-06T12:40:59.194Z,97071.78
2022-09-06T12:43:26.234Z,97077.88
2022-09-06T12:45:53.020Z,97075.38
2022-09-06T12:48:27.132Z,97070.59
2022-09-06T12:51:08.263Z,97069.09
2022-09-06T12:53:35.330Z,97064.13
2022-09-06T12:56:06.262Z,97062.97
2022-09-06T12:58:33.694Z,97045.84
2022-09-06T13:01:16.062Z,97052.22
2022-09-06T14:04:11.546Z,97046.25
2022-09-06T14:06:38.176Z,97033.00
2022-09-06T14:09:07.653Z,97036.16
2022-09-06T14:11:35.043Z,97032.25
2022-09-06T14:14:01.770Z,97030.56
2022-09-06T14:20:09.438Z,97030.75
2022-09-06T14:22:35.972Z,97034.88
2022-09-06T14:25:02.629Z,97022.69
2022-09-06T14:27:29.235Z,97019.50
2022-09-06T14:29:55.829Z,97025.59
2022-09-06T14:32:22.871Z,97025.97
2022-09-06T14:34:49.608Z,97024.56
2022-09-06T14:37:16.168Z,97028.56
2022-09-06T14:39:42.825Z,97028.09
2022-09-06T14:42:09.415Z,97019.41
2022-09-06T14:44:35.989Z,97016.19
2022-09-06T14:47:03.426Z,97012.38
2022-09-06T14:49:30.101Z,97004.00
2022-09-06T14:51:56.685Z,97009.38
2022-09-06T14:54:28.574Z,96993.94
2022-09-06T14:56:56.392Z,96988.16
2022-09-06T14:59:22.970Z,96988.59
2022-09-06T15:01:49.620Z,96991.53
2022-09-06T15:04:16.435Z,96992.00
2022-09-06T15:06:47.119Z,96996.69
2022-09-06T15:09:17.534Z,96992.50
2022-09-06T15:11:50.657Z,96987.75
2022-09-06T15:14:23.154Z,96990.50
2022-09-06T15:16:56.014Z,96980.25
2022-09-06T15:19:24.577Z,96981.28
2022-09-06T15:21:51.180Z,96980.09
2022-09-06T15:24:17.820Z,96980.22
2022-09-06T15:26:44.433Z,96972.78
2022-09-06T15:29:12.031Z,96967.91
2022-09-06T15:31:39.262Z,96968.63
2022-09-06T15:34:06.685Z,96965.03
2022-09-06T15:36:33.457Z,96959.59
2022-09-06T15:39:01.306Z,96957.88
2022-09-06T15:41:29.925Z,96955.34
2022-09-06T15:44:01.556Z,96959.44
2022-09-06T15:46:45.472Z,96953.63
2022-09-06T15:49:16.188Z,96949.66
2022-09-06T15:51:42.874Z,96954.34
2022-09-06T15:54:11.283Z,96958.19
2022-09-06T15:56:37.941Z,96958.91
2022-09-06T15:59:05.108Z,96950.25
2022-09-06T16:01:33.984Z,96950.47
2022-09-06T16:04:05.816Z,96940.84
2022-09-06T16:06:36.527Z,96949.59
2022-09-06T16:09:10.224Z,96946.75
2022-09-06T16:11:37.277Z,96942.69
2022-09-06T16:14:05.245Z,96946.97
2022-09-06T16:16:32.713Z,96943.59
2022-09-06T16:19:00.234Z,96949.88
2022-09-06T16:21:30.450Z,96945.28
2022-09-06T16:23:59.706Z,96949.50
2022-09-06T16:26:28.337Z,96945.06
2022-09-06T16:28:55.144Z,96947.78
2022-09-06T16:31:22.873Z,96948.19
2022-09-06T16:33:49.871Z,96938.66
2022-09-06T16:36:17.875Z,96945.28
2022-09-06T16:38:45.324Z,96941.44
2022-09-06T16:41:42.534Z,96942.41
2022-09-06T16:44:14.473Z,96950.22
2022-09-06T16:46:41.739Z,96957.50
2022-09-06T16:49:08.461Z,96956.16
2022-09-06T16:51:35.369Z,96951.81
2022-09-06T16:54:02.029Z,96957.63
2022-09-06T16:56:33.384Z,96961.34
2022-09-06T16:59:01.779Z,96959.53
2022-09-06T17:01:30.196Z,96963.94
2022-09-06T17:03:57.483Z,96960.78
2022-09-06T17:06:25.349Z,96960.63
2022-09-06T17:08:52.159Z,96960.97
2022-09-06T17:11:20.804Z,96957.41
2022-09-06T17:13:49.393Z,96962.09
2022-09-06T17:16:35.040Z,96957.63
2022-09-06T17:19:02.403Z,96960.50
2022-09-06T17:21:29.740Z,96960.59
2022-09-06T17:23:59.001Z,96954.50
2022-09-06T17:26:25.595Z,96953.50
2022-09-06T17:28:52.213Z,96960.03
2022-09-06T17:31:25.061Z,96950.69
2022-09-06T17:33:52.522Z,96945.50
2022-09-06T17:36:22.132Z,96949.69
2022-09-06T17:38:53.278Z,96951.44
2022-09-06T17:41:25.747Z,96950.75
2022-09-06T17:43:55.685Z,96942.75
2022-09-06T17:46:28.445Z,96952.53
2022-09-06T17:48:55.931Z,96946.66
2022-09-06T17:51:22.563Z,96944.00
2022-09-06T17:53:49.100Z,96942.44
2022-09-06T17:56:17.100Z,96946.28
2022-09-06T17:58:43.953Z,96954.41
2022-09-06T18:01:14.228Z,96957.13
2022-09-06T18:03:42.019Z,96951.47
2022-09-06T18:06:11.361Z,96957.41
2022-09-06T18:08:40.204Z,96967.34
2022-09-06T18:11:09.306Z,96969.50
2022-09-06T18:13:36.469Z,96974.31
2022-09-06T18:16:03.734Z,96977.50
2022-09-06T18:18:34.338Z,96974.22
2022-09-06T18:21:01.689Z,96982.56
2022-09-06T18:23:31.995Z,96987.53
2022-09-06T18:26:00.344Z,96984.56
2022-09-06T18:28:31.506Z,96982.06
2022-09-06T18:30:58.685Z,96983.97
2022-09-06T18:33:25.220Z,96974.00
2022-09-06T18:35:51.937Z,96971.06
2022-09-06T18:38:18.875Z,96970.47
2022-09-06T18:40:58.565Z,96973.91
2022-09-06T18:43:33.868Z,96969.31
2022-09-06T18:46:05.825Z,96974.41
2022-09-06T18:48:33.064Z,96973.59
2022-09-06T18:51:07.245Z,96974.34
2022-09-06T18:53:34.721Z,96972.19
2022-09-06T18:56:01.829Z,96972.94
2022-09-06T18:58:28.435Z,96979.13
2022-09-06T19:01:02.343Z,96987.44
2022-09-06T19:03:29.060Z,96980.66
2022-09-06T19:05:57.108Z,96989.66
2022-09-06T19:08:23.873Z,96987.69
2022-09-06T19:10:59.115Z,97001.56
2022-09-06T19:13:25.876Z,96994.41
2022-09-06T19:15:52.462Z,97003.63
2022-09-06T19:18:20.085Z,97001.94
2022-09-06T19:20:59.749Z,97002.06
2022-09-06T19:23:26.728Z,97001.53
2022-09-06T19:26:17.938Z,97000.19
2022-09-06T19:28:56.371Z,96995.66
2022-09-06T19:31:24.659Z,97004.53
2022-09-06T19:33:51.784Z,96992.44
2022-09-06T19:36:19.205Z,96989.19
2022-09-06T19:39:01.922Z,96983.25
2022-09-06T19:41:30.432Z,96992.44
2022-09-06T19:43:58.079Z,96988.53
2022-09-06T19:46:25.342Z,96983.13
2022-09-06T19:48:53.632Z,96986.59
2022-09-06T19:51:21.020Z,96980.16
2022-09-06T19:53:55.129Z,96971.97
2022-09-06T19:56:24.091Z,96958.00
2022-09-06T19:59:04.334Z,96957.66
2022-09-06T20:01:32.863Z,96956.41
2022-09-06T20:04:02.397Z,96954.94
2022-09-06T20:06:29.599Z,96958.84
2022-09-06T20:08:57.442Z,96950.81
2022-09-06T20:11:26.537Z,96947.31
2022-09-06T20:13:53.696Z,96934.22
2022-09-06T20:16:21.191Z,96923.81
2022-09-06T20:18:48.462Z,96913.22
2022-09-06T20:21:17.707Z,96913.81
2022-09-06T20:23:48.861Z,96910.59
2022-09-06T20:26:15.394Z,96909.56
2022-09-06T20:28:42.236Z,96914.41
2022-09-06T20:31:11.511Z,96918.78
2022-09-06T20:33:39.456Z,96918.66
2022-09-06T20:36:07.719Z,96933.75
2022-09-06T20:38:39.217Z,96938.50
2022-09-06T20:41:23.677Z,96935.25
2022-09-06T20:43:54.960Z,96925.25
2022-09-06T20:46:24.041Z,96925.47
2022-09-06T20:48:51.794Z,96934.19
2022-09-06T20:51:20.619Z,96937.91
2022-09-06T20:53:49.084Z,96933.84
2022-09-06T20:56:18.486Z,96944.81
2022-09-06T20:58:52.092Z,96930.25
2022-09-06T21:01:22.641Z,96934.34
2022-09-06T21:03:52.015Z,96941.31
2022-09-06T21:06:19.325Z,96926.28
2022-09-06T21:08:46.478Z,96921.09
2022-09-06T21:11:13.007Z,96930.31
2022-09-06T21:13:39.928Z,96933.41
2022-09-06T21:16:07.203Z,96936.63
2022-09-06T21:18:34.580Z,96944.44
2022-09-06T21:21:08.326Z,96946.38
2022-09-06T21:23:37.550Z,96946.78
2022-09-06T21:26:10.064Z,96956.75
2022-09-06T21:28:38.673Z,96955.25
2022-09-06T21:31:14.724Z,96952.97
2022-09-06T21:33:44.400Z,96955.22
2022-09-06T21:36:13.688Z,96959.00
2022-09-06T21:38:42.879Z,96952.59
2022-09-06T21:41:10.438Z,96947.75
2022-09-06T21:43:37.063Z,96964.69
2022-09-06T21:46:05.327Z,96957.09
2022-09-06T21:48:32.079Z,96963.28
2022-09-06T21:50:58.702Z,96953.63
2022-09-06T21:53:27.108Z,96953.41
2022-09-06T21:56:00.160Z,96944.28
2022-09-06T21:58:26.873Z,96953.63
2022-09-06T22:00:55.156Z,96946.63
2022-09-06T22:03:21.763Z,96936.06
2022-09-06T22:05:48.915Z,96930.66
2022-09-06T22:08:15.553Z,96922.84
2022-09-06T22:10:42.148Z,96917.13
2022-09-06T22:13:08.874Z,96912.06
2022-09-06T22:15:39.218Z,96910.41
2022-09-06T22:18:07.189Z,96902.81
2022-09-06T22:20:34.552Z,96892.59
2022-09-06T22:23:08.136Z,96904.94
2022-09-06T22:25:34.749Z,96899.53
2022-09-06T22:28:01.422Z,96890.44
2022-09-06T22:30:28.031Z,96884.25
2022-09-06T22:32:54.716Z,96882.31
2022-09-06T22:35:21.890Z,96878.56
2022-09-06T22:37:48.477Z,96865.66
2022-09-06T22:40:15.089Z,96869.41
2022-09-06T22:42:41.705Z,96868.88
2022-09-06T22:45:08.608Z,96858.41
2022-09-06T22:47:35.195Z,96846.84
2022-09-06T22:50:01.976Z,96833.19
2022-09-06T22:52:28.550Z,96836.81
2022-09-06T22:54:55.143Z,96816.66
2022-09-06T22:57:21.721Z,96810.22
2022-09-06T22:59:48.604Z,96816.66
2022-09-06T23:02:15.190Z,96824.13
2022-09-06T23:04:41.774Z,96817.16
2022-09-06T23:07:08.374Z,96813.63
2022-09-06T23:09:34.907Z,96806.09
2022-09-06T23:12:01.675Z,96794.19
2022-09-06T23:14:28.724Z,96793.09
2022-09-06T23:16:55.316Z,96785.78
2022-09-06T23:19:21.861Z,96795.97
2022-09-06T23:21:48.504Z,96799.97
2022-09-06T23:24:15.065Z,96794.81
2022-09-06T23:26:41.625Z,96803.94
2022-09-06T23:29:08.778Z,96799.56
2022-09-06T23:31:35.373Z,96798.47
2022-09-06T23:34:02.817Z,96800.06
2022-09-06T23:36:30.812Z,96805.03
2022-09-06T23:38:57.549Z,96808.47
2022-09-06T23:41:24.848Z,96803.03
2022-09-06T23:43:51.431Z,96811.06
2022-09-06T23:46:18.223Z,96805.63
2022-09-06T23:48:44.877Z,96830.75
2022-09-06T23:51:12.797Z,96842.41
2022-09-06T23:53:39.756Z,96859.75
2022-09-06T23:56:06.976Z,96860.00
2022-09-06T23:58:42.721Z,96868.59
